Time;durP1;ratioP1;P1;durP2;ratioP2;P2;SDS_P1;SDS_P2;PMS_P1;PMS_P2;Temp;Humidity;BMP_temperature;BMP_pressure;BME280_temperature;BME280_humidity;BME280_pressure;Samples;Min_cycle;Max_cycle;Signal;HPM_P1;HPM_P2
2024/01/24 00:01:42;;;;;;;54.25;34.65;;;;;;;;;;5054334;28;20057;-47
2024/01/24 00:04:09;;;;;;;56.22;33.53;;;;;;;;;;5054518;28;20040;-49
2024/01/24 00:06:37;;;;;;;41.53;25.30;;;;;;;;;;5054332;28;20091;-49
2024/01/24 00:09:04;;;;;;;54.00;33.65;;;;;;;;;;5054470;28;20036;-50
2024/01/24 00:11:30;;;;;;;54.88;34.20;;;;;;;;;;5054356;28;20037;-49
2024/01/24 00:13:57;;;;;;;56.37;31.80;;;;;;;;;;5054100;28;20032;-47
2024/01/24 00:16:23;;;;;;;49.78;30.63;;;;;;;;;;5036294;28;20025;-51
2024/01/24 00:18:49;;;;;;;50.40;32.53;;;;;;;;;;5053225;28;20035;-50
2024/01/24 00:21:15;;;;;;;58.57;32.77;;;;;;;;;;5053487;28;20029;-47
2024/01/24 00:23:41;;;;;;;52.42;32.42;;;;;;;;;;5053903;28;20108;-47
2024/01/24 00:26:07;;;;;;;54.85;33.03;;;;;;;;;;5035303;28;20054;-47
2024/01/24 00:28:34;;;;;;;54.50;31.27;;;;;;;;;;5053871;28;20017;-48
2024/01/24 00:31:00;;;;;;;52.70;33.33;;;;;;;;;;5036050;28;20119;-50
2024/01/24 00:33:29;;;;;;;55.15;32.40;;;;;;;;;;5036067;28;20458;-49
2024/01/24 00:35:55;;;;;;;58.20;35.83;;;;;;;;;;5053882;28;20044;-48
2024/01/24 00:38:21;;;;;;;53.60;30.98;;;;;;;;;;5053915;28;20489;-51
2024/01/24 00:40:48;;;;;;;57.53;35.33;;;;;;;;;;5053600;28;20478;-48
2024/01/24 00:43:14;;;;;;;50.75;32.08;;;;;;;;;;5036049;28;20099;-49
2024/01/24 00:45:40;;;;;;;58.27;34.87;;;;;;;;;;5053072;28;20445;-49
2024/01/24 00:48:07;;;;;;;55.30;32.42;;;;;;;;;;5053718;28;20033;-50
2024/01/24 00:50:34;;;;;;;51.92;32.65;;;;;;;;;;5035718;28;20029;-47
2024/01/24 00:53:04;;;;;;;53.83;33.30;;;;;;;;;;5053380;28;20037;-50
2024/01/24 00:55:31;;;;;;;59.10;33.22;;;;;;;;;;5053367;28;20029;-48
2024/01/24 00:57:58;;;;;;;61.63;36.08;;;;;;;;;;5053307;28;20444;-48
2024/01/24 01:00:24;;;;;;;53.10;32.20;;;;;;;;;;5053378;28;20039;-50
2024/01/24 01:02:51;;;;;;;50.53;31.17;;;;;;;;;;5053548;28;20384;-48
2024/01/24 01:05:17;;;;;;;57.92;33.15;;;;;;;;;;5053253;28;20479;-51
2024/01/24 01:07:43;;;;;;;54.65;33.67;;;;;;;;;;5053332;28;20072;-51
2024/01/24 01:10:09;;;;;;;50.23;31.30;;;;;;;;;;5035090;28;20087;-47
2024/01/24 01:12:36;;;;;;;50.33;32.60;;;;;;;;;;5053308;28;20533;-48
2024/01/24 01:15:02;;;;;;;49.35;31.20;;;;;;;;;;5053093;28;20024;-50
2024/01/24 01:17:28;;;;;;;50.83;29.42;;;;;;;;;;5052693;28;20025;-48
2024/01/24 01:19:54;;;;;;;45.88;29.30;;;;;;;;;;5053317;28;20123;-48
2024/01/24 01:22:21;;;;;;;49.55;29.85;;;;;;;;;;5053304;28;20522;-48
2024/01/24 01:24:47;;;;;;;47.57;30.70;;;;;;;;;;5035401;28;20044;-48
2024/01/24 01:27:13;;;;;;;48.20;30.27;;;;;;;;;;5035136;28;20036;-51
2024/01/24 01:29:39;;;;;;;50.50;31.20;;;;;;;;;;5053356;28;20025;-49
2024/01/24 01:32:06;;;;;;;53.40;31.47;;;;;;;;;;5051912;28;20040;-48
2024/01/24 01:34:32;;;;;;;51.58;31.58;;;;;;;;;;5052795;28;20025;-50
2024/01/24 01:36:58;;;;;;;55.88;32.92;;;;;;;;;;5035246;28;20082;-49
2024/01/24 01:39:24;;;;;;;61.85;34.25;;;;;;;;;;5052867;28;20378;-47
2024/01/24 01:41:51;;;;;;;57.20;33.08;;;;;;;;;;5035005;28;20052;-49
2024/01/24 01:44:17;;;;;;;55.67;33.83;;;;;;;;;;5035105;28;20083;-47
2024/01/24 01:46:46;;;;;;;56.93;32.90;;;;;;;;;;5052557;28;20078;-47
2024/01/24 01:49:13;;;;;;;52.35;32.25;;;;;;;;;;5052437;28;20463;-50
2024/01/24 01:51:39;;;;;;;55.57;32.87;;;;;;;;;;5052429;28;20037;-48
2024/01/24 01:54:07;;;;;;;54.75;32.47;;;;;;;;;;5052295;28;20029;-48
2024/01/24 01:56:34;;;;;;;55.55;31.48;;;;;;;;;;5052453;28;20060;-48
2024/01/24 01:59:00;;;;;;;53.20;31.60;;;;;;;;;;5052175;28;20028;-48
2024/01/24 02:01:26;;;;;;;58.20;33.23;;;;;;;;;;5052321;28;20039;-48
2024/01/24 02:03:52;;;;;;;47.90;30.57;;;;;;;;;;5034025;28;20040;-51
2024/01/24 02:06:19;;;;;;;55.53;34.73;;;;;;;;;;5034317;28;20494;-48
2024/01/24 02:08:45;;;;;;;61.55;34.78;;;;;;;;;;5033906;28;20032;-48
2024/01/24 02:11:12;;;;;;;58.90;32.77;;;;;;;;;;5034154;28;20128;-47
2024/01/24 02:13:38;;;;;;;58.13;34.97;;;;;;;;;;5033722;28;20052;-47
2024/01/24 02:16:05;;;;;;;62.38;32.92;;;;;;;;;;5052292;28;20021;-49
2024/01/24 02:18:31;;;;;;;54.17;33.70;;;;;;;;;;5034332;28;20040;-49
2024/01/24 02:20:57;;;;;;;53.22;33.17;;;;;;;;;;5051715;28;20033;-48
2024/01/24 02:23:25;;;;;;;54.57;32.40;;;;;;;;;;5034016;28;20044;-51
2024/01/24 02:25:52;;;;;;;61.50;32.45;;;;;;;;;;5034134;28;20033;-48
2024/01/24 02:28:19;;;;;;;57.53;33.22;;;;;;;;;;5051750;28;20040;-51
2024/01/24 02:30:45;;;;;;;48.05;32.42;;;;;;;;;;5051572;28;20105;-48
2024/01/24 02:33:12;;;;;;;58.25;34.30;;;;;;;;;;5033772;28;20036;-48
2024/01/24 02:35:38;;;;;;;54.22;31.88;;;;;;;;;;5027472;28;20284;-48
2024/01/24 02:38:05;;;;;;;59.20;32.85;;;;;;;;;;5051347;28;20025;-48
2024/01/24 02:40:31;;;;;;;49.33;31.83;;;;;;;;;;5051440;28;20061;-48
2024/01/24 02:42:57;;;;;;;49.47;30.70;;;;;;;;;;5033683;28;20025;-48
2024/01/24 02:45:24;;;;;;;57.47;33.33;;;;;;;;;;5050946;28;20025;-48
2024/01/24 02:47:50;;;;;;;54.33;32.55;;;;;;;;;;5051405;28;20079;-47
2024/01/24 02:50:16;;;;;;;58.10;32.67;;;;;;;;;;5051116;28;20044;-48
2024/01/24 02:52:43;;;;;;;55.67;34.03;;;;;;;;;;5017021;28;20513;-48
2024/01/24 02:55:14;;;;;;;54.10;32.95;;;;;;;;;;5051732;28;20086;-48
2024/01/24 02:57:40;;;;;;;57.85;34.90;;;;;;;;;;5051461;28;20057;-48
2024/01/24 03:00:07;;;;;;;60.95;36.38;;;;;;;;;;5050224;28;20025;-50
2024/01/24 03:02:33;;;;;;;57.35;33.25;;;;;;;;;;5051185;28;20104;-47
2024/01/24 03:05:00;;;;;;;60.47;32.47;;;;;;;;;;5051230;28;20541;-47
2024/01/24 03:07:26;;;;;;;52.60;30.93;;;;;;;;;;5050984;28;20259;-48
2024/01/24 03:09:53;;;;;;;52.88;33.83;;;;;;;;;;5051272;28;20756;-48
2024/01/24 03:12:20;;;;;;;56.23;32.53;;;;;;;;;;5051268;28;20031;-50
2024/01/24 03:14:46;;;;;;;53.70;32.80;;;;;;;;;;5051185;28;20056;-47
2024/01/24 03:17:12;;;;;;;52.13;31.17;;;;;;;;;;5050689;28;20138;-50
2024/01/24 03:19:38;;;;;;;63.47;35.05;;;;;;;;;;5050981;28;20040;-49
2024/01/24 03:22:05;;;;;;;55.55;32.53;;;;;;;;;;5033697;28;20031;-50
2024/01/24 03:24:31;;;;;;;58.57;34.17;;;;;;;;;;5050984;28;20487;-48
2024/01/24 03:26:57;;;;;;;51.00;32.17;;;;;;;;;;5051152;28;20071;-47
2024/01/24 03:29:23;;;;;;;55.00;33.55;;;;;;;;;;5051014;28;20029;-48
2024/01/24 03:31:49;;;;;;;48.63;33.60;;;;;;;;;;5049954;28;20029;-49
2024/01/24 03:34:16;;;;;;;53.47;31.30;;;;;;;;;;5031720;28;20044;-48
2024/01/24 03:36:42;;;;;;;57.50;35.67;;;;;;;;;;5033057;28;20037;-46
2024/01/24 03:39:12;;;;;;;57.92;33.35;;;;;;;;;;5051079;28;20093;-48
2024/01/24 03:41:38;;;;;;;60.63;32.83;;;;;;;;;;5050774;28;20389;-48
2024/01/24 03:44:05;;;;;;;49.20;30.90;;;;;;;;;;5050403;28;20479;-47
2024/01/24 03:46:31;;;;;;;58.20;35.00;;;;;;;;;;5050896;28;20426;-48
2024/01/24 03:48:57;;;;;;;56.73;35.53;;;;;;;;;;5033097;28;20060;-48
2024/01/24 03:51:24;;;;;;;58.05;34.47;;;;;;;;;;5050878;28;20601;-47
2024/01/24 03:53:50;;;;;;;61.22;37.90;;;;;;;;;;5050483;28;20025;-46
2024/01/24 03:56:18;;;;;;;53.83;34.33;;;;;;;;;;5033123;28;20033;-50
2024/01/24 03:58:44;;;;;;;;;;;;;;;;;;5051219;28;20025;-48
2024/01/24 04:01:10;;;;;;;53.67;33.67;;;;;;;;;;5051134;28;20785;-47
2024/01/24 04:03:36;;;;;;;55.33;34.30;;;;;;;;;;5036323;28;20395;-49
2024/01/24 04:06:03;;;;;;;62.10;34.80;;;;;;;;;;5054642;28;20033;-47
2024/01/24 04:08:30;;;;;;;56.90;35.00;;;;;;;;;;5054196;28;20033;-48
2024/01/24 04:10:56;;;;;;;51.20;31.95;;;;;;;;;;5036412;28;20029;-50
2024/01/24 04:13:22;;;;;;;58.28;34.28;;;;;;;;;;5053860;28;20029;-48
2024/01/24 04:15:48;;;;;;;52.47;31.60;;;;;;;;;;5035734;28;20025;-48
2024/01/24 04:18:15;;;;;;;50.03;31.80;;;;;;;;;;5065942;28;20375;-48
2024/01/24 04:20:41;;;;;;;53.38;32.72;;;;;;;;;;5056595;28;20028;-48
2024/01/24 04:23:07;;;;;;;52.05;33.78;;;;;;;;;;5054786;28;20078;-48
2024/01/24 04:25:33;;;;;;;52.50;33.07;;;;;;;;;;5036247;28;20028;-47
2024/01/24 04:28:00;;;;;;;52.63;32.70;;;;;;;;;;5054126;28;20045;-48
2024/01/24 04:30:26;;;;;;;53.67;31.30;;;;;;;;;;5053908;28;20041;-49
2024/01/24 04:32:52;;;;;;;56.13;34.50;;;;;;;;;;5054350;28;20320;-47
2024/01/24 04:35:19;;;;;;;56.85;35.33;;;;;;;;;;5053961;28;20503;-47
2024/01/24 04:37:46;;;;;;;58.47;34.45;;;;;;;;;;5054161;28;20036;-47
2024/01/24 04:40:12;;;;;;;55.65;32.85;;;;;;;;;;5035965;28;20021;-47
2024/01/24 04:42:38;;;;;;;64.50;36.42;;;;;;;;;;5053712;28;20032;-47
2024/01/24 04:45:05;;;;;;;69.43;39.13;;;;;;;;;;5053308;28;20021;-49
2024/01/24 04:47:31;;;;;;;60.92;35.13;;;;;;;;;;5033638;28;20034;-47
2024/01/24 04:49:57;;;;;;;63.25;35.63;;;;;;;;;;5053542;23;20128;-47
2024/01/24 04:52:24;;;;;;;60.03;34.53;;;;;;;;;;5012605;28;20030;-45
2024/01/24 04:54:51;;;;;;;65.15;34.53;;;;;;;;;;5013637;28;20099;-49
2024/01/24 04:57:17;;;;;;;52.00;33.25;;;;;;;;;;5014172;28;20017;-49
2024/01/24 04:59:43;;;;;;;54.03;32.35;;;;;;;;;;5013834;28;20124;-49
2024/01/24 05:02:09;;;;;;;53.23;33.30;;;;;;;;;;5014151;28;20025;-48
2024/01/24 05:04:36;;;;;;;56.92;35.05;;;;;;;;;;5013851;28;20041;-48
2024/01/24 05:07:02;;;;;;;54.88;32.15;;;;;;;;;;5012767;28;20574;-47
2024/01/24 05:09:28;;;;;;;57.97;35.05;;;;;;;;;;5013919;28;20025;-48
2024/01/24 05:11:54;;;;;;;56.80;34.10;;;;;;;;;;5013528;28;20108;-46
2024/01/24 05:14:21;;;;;;;56.80;34.13;;;;;;;;;;5013620;28;20037;-49
2024/01/24 05:16:49;;;;;;;59.37;34.47;;;;;;;;;;5013900;28;20022;-48
2024/01/24 05:19:15;;;;;;;59.13;34.33;;;;;;;;;;5013735;28;20018;-48
2024/01/24 05:21:42;;;;;;;61.58;34.85;;;;;;;;;;5012504;28;20044;-47
2024/01/24 05:24:09;;;;;;;52.13;33.05;;;;;;;;;;5013557;28;20033;-48
2024/01/24 05:26:36;;;;;;;;;;;;;;;;;;5012789;28;20436;-47
2024/01/24 05:29:02;;;;;;;52.47;32.00;;;;;;;;;;5013465;28;19917;-48
2024/01/24 05:31:29;;;;;;;57.33;34.78;;;;;;;;;;5013636;28;20029;-50
2024/01/24 05:33:55;;;;;;;52.90;33.17;;;;;;;;;;5013393;28;20495;-48
2024/01/24 05:36:22;;;;;;;65.55;37.25;;;;;;;;;;5013544;28;20030;-49
2024/01/24 05:38:48;;;;;;;58.85;35.65;;;;;;;;;;5013317;28;20030;-49
2024/01/24 05:41:14;;;;;;;56.28;35.20;;;;;;;;;;5013234;28;20036;-48
2024/01/24 05:43:40;;;;;;;59.50;34.17;;;;;;;;;;5011913;28;20034;-48
2024/01/24 05:46:07;;;;;;;66.93;37.03;;;;;;;;;;5011880;28;20018;-49
2024/01/24 05:48:33;;;;;;;60.40;37.35;;;;;;;;;;5011849;28;20033;-49
2024/01/24 05:50:59;;;;;;;59.50;36.15;;;;;;;;;;5013236;28;20131;-49
2024/01/24 05:53:25;;;;;;;64.03;37.58;;;;;;;;;;5012964;28;20034;-49
2024/01/24 05:55:51;;;;;;;60.63;35.28;;;;;;;;;;5013021;28;20032;-48
2024/01/24 05:58:18;;;;;;;63.20;36.37;;;;;;;;;;5011734;28;20033;-49
2024/01/24 06:00:44;;;;;;;63.75;35.90;;;;;;;;;;5012960;28;20108;-50
2024/01/24 06:03:11;;;;;;;60.70;35.65;;;;;;;;;;5013135;28;20021;-48
2024/01/24 06:05:37;;;;;;;61.35;36.95;;;;;;;;;;5012706;28;20029;-49
2024/01/24 06:08:05;;;;;;;64.53;37.42;;;;;;;;;;5011636;28;20395;-49
2024/01/24 06:10:31;;;;;;;60.90;35.80;;;;;;;;;;5012763;28;20022;-48
2024/01/24 06:12:58;;;;;;;62.88;37.30;;;;;;;;;;5012902;28;20034;-49
2024/01/24 06:15:24;;;;;;;66.57;39.03;;;;;;;;;;5011338;28;20026;-49
2024/01/24 06:17:50;;;;;;;60.17;36.20;;;;;;;;;;5011376;28;20030;-48
2024/01/24 06:20:16;;;;;;;60.53;38.47;;;;;;;;;;5011410;28;20093;-48
2024/01/24 06:22:43;;;;;;;61.60;37.93;;;;;;;;;;5012606;28;20384;-49
2024/01/24 06:25:09;;;;;;;62.20;35.75;;;;;;;;;;5011813;28;20026;-46
2024/01/24 06:27:36;;;;;;;63.00;36.20;;;;;;;;;;5011496;28;20030;-48
2024/01/24 06:30:02;;;;;;;57.17;34.00;;;;;;;;;;5012506;28;20092;-49
2024/01/24 06:32:28;;;;;;;65.57;35.43;;;;;;;;;;5011364;28;20029;-50
2024/01/24 06:34:54;;;;;;;58.97;34.88;;;;;;;;;;4994779;28;20260;-53
2024/01/24 06:37:21;;;;;;;63.43;37.20;;;;;;;;;;5012576;28;20204;-51
2024/01/24 06:39:47;;;;;;;61.43;36.57;;;;;;;;;;5011039;28;20060;-49
2024/01/24 06:42:13;;;;;;;64.87;37.53;;;;;;;;;;5012304;28;20108;-49
2024/01/24 06:44:39;;;;;;;61.70;37.45;;;;;;;;;;5010906;28;20283;-50
2024/01/24 06:47:05;;;;;;;65.37;36.10;;;;;;;;;;5011114;28;20380;-50
2024/01/24 06:49:32;;;;;;;60.67;37.27;;;;;;;;;;5011055;28;20022;-49
2024/01/24 06:51:58;;;;;;;59.60;37.38;;;;;;;;;;5012242;28;20275;-49
2024/01/24 06:54:24;;;;;;;66.30;37.92;;;;;;;;;;5012068;28;20052;-49
2024/01/24 06:56:50;;;;;;;48.17;29.42;;;;;;;;;;5012158;28;20026;-50
2024/01/24 06:59:17;;;;;;;66.93;37.60;;;;;;;;;;5010767;28;20026;-48
2024/01/24 07:01:43;;;;;;;60.97;38.33;;;;;;;;;;5010810;28;20033;-50
2024/01/24 07:04:09;;;;;;;64.75;38.58;;;;;;;;;;5011904;28;20018;-51
2024/01/24 07:06:36;;;;;;;64.63;40.53;;;;;;;;;;5012016;28;20040;-48
2024/01/24 07:09:02;;;;;;;61.47;39.42;;;;;;;;;;4994416;28;20261;-48
2024/01/24 07:11:28;;;;;;;63.73;38.20;;;;;;;;;;5012016;28;20030;-48
2024/01/24 07:13:54;;;;;;;60.75;38.50;;;;;;;;;;5011846;28;20105;-48
2024/01/24 07:16:21;;;;;;;69.77;40.30;;;;;;;;;;5011774;28;20044;-49
2024/01/24 07:18:47;;;;;;;60.57;37.87;;;;;;;;;;5010668;28;20058;-49
2024/01/24 07:21:14;;;;;;;68.27;40.03;;;;;;;;;;5010585;28;20531;-48
2024/01/24 07:23:40;;;;;;;;;;;;;;;;;;5011186;28;20022;-48
2024/01/24 07:26:06;;;;;;;65.75;37.88;;;;;;;;;;5011739;28;20414;-51
2024/01/24 07:28:34;;;;;;;72.97;38.42;;;;;;;;;;5011916;28;20109;-50
2024/01/24 07:31:01;;;;;;;65.28;37.45;;;;;;;;;;5011760;28;20038;-53
2024/01/24 07:33:30;;;;;;;67.27;38.97;;;;;;;;;;5011646;28;20076;-49
2024/01/24 07:35:56;;;;;;;60.88;39.22;;;;;;;;;;5013488;28;20113;-46
2024/01/24 07:38:23;;;;;;;64.90;39.20;;;;;;;;;;5015680;28;20033;-48
2024/01/24 07:40:49;;;;;;;64.18;40.17;;;;;;;;;;5015582;28;20391;-49
2024/01/24 07:43:15;;;;;;;74.50;43.28;;;;;;;;;;5015717;28;20033;-47
2024/01/24 07:45:42;;;;;;;65.18;39.13;;;;;;;;;;5015306;28;20018;-46
2024/01/24 07:48:13;;;;;;;63.67;39.85;;;;;;;;;;5015270;28;20033;-48
2024/01/24 07:50:39;;;;;;;69.35;40.60;;;;;;;;;;4997872;28;20030;-48
2024/01/24 07:53:05;;;;;;;60.58;37.20;;;;;;;;;;5014188;28;20033;-49
2024/01/24 07:55:32;;;;;;;68.53;41.28;;;;;;;;;;5014016;28;20385;-46
2024/01/24 07:57:58;;;;;;;69.95;41.05;;;;;;;;;;5015270;28;20105;-47
2024/01/24 08:00:25;;;;;;;68.88;42.58;;;;;;;;;;5013914;28;20044;-49
2024/01/24 08:02:51;;;;;;;67.28;41.70;;;;;;;;;;5013641;28;20045;-51
2024/01/24 08:05:17;;;;;;;69.57;42.05;;;;;;;;;;5015070;28;20029;-47
2024/01/24 08:07:44;;;;;;;71.13;45.03;;;;;;;;;;5013892;28;20021;-48
2024/01/24 08:10:10;;;;;;;76.38;44.85;;;;;;;;;;5015112;28;20034;-51
2024/01/24 08:12:37;;;;;;;73.63;44.70;;;;;;;;;;5014020;28;20033;-52
2024/01/24 08:15:05;;;;;;;77.22;45.35;;;;;;;;;;5014905;28;20042;-49
2024/01/24 08:17:32;;;;;;;68.70;41.83;;;;;;;;;;5014748;28;20033;-46
2024/01/24 08:19:58;;;;;;;71.63;44.47;;;;;;;;;;5014865;28;20034;-51
2024/01/24 08:22:26;;;;;;;77.83;46.27;;;;;;;;;;5015224;28;20018;-46
2024/01/24 08:24:52;;;;;;;66.10;43.40;;;;;;;;;;5014752;28;20268;-46
2024/01/24 08:27:18;;;;;;;72.00;44.58;;;;;;;;;;5013612;28;20056;-46
2024/01/24 08:29:44;;;;;;;73.07;43.75;;;;;;;;;;5013812;28;20026;-48
2024/01/24 08:32:10;;;;;;;72.07;45.03;;;;;;;;;;5004415;28;20034;-47
2024/01/24 08:34:37;;;;;;;73.70;44.47;;;;;;;;;;5014748;28;20080;-47
2024/01/24 08:37:04;;;;;;;75.10;47.00;;;;;;;;;;5014682;28;20507;-48
2024/01/24 08:39:30;;;;;;;74.28;45.30;;;;;;;;;;5014461;28;20026;-48
2024/01/24 08:41:56;;;;;;;70.97;42.53;;;;;;;;;;5013274;28;20129;-50
2024/01/24 08:44:22;;;;;;;71.70;44.17;;;;;;;;;;5014404;28;20014;-47
2024/01/24 08:46:50;;;;;;;72.53;45.53;;;;;;;;;;5013897;28;20026;-47
2024/01/24 08:49:17;;;;;;;72.60;46.42;;;;;;;;;;5014237;28;20108;-46
2024/01/24 08:51:43;;;;;;;78.87;47.03;;;;;;;;;;5013202;28;20045;-50
2024/01/24 08:54:10;;;;;;;78.03;45.23;;;;;;;;;;5014084;28;20025;-51
2024/01/24 08:56:37;;;;;;;72.63;45.85;;;;;;;;;;5014341;28;20269;-48
2024/01/24 08:59:04;;;;;;;74.60;44.67;;;;;;;;;;5013621;28;20033;-48
2024/01/24 09:01:30;;;;;;;76.25;46.25;;;;;;;;;;5012283;28;20041;-49
2024/01/24 09:03:56;;;;;;;74.10;44.60;;;;;;;;;;5013956;28;20036;-47
2024/01/24 09:06:25;;;;;;;69.87;43.77;;;;;;;;;;5014086;28;20034;-49
2024/01/24 09:08:52;;;;;;;65.53;40.72;;;;;;;;;;5013891;28;20156;-47
2024/01/24 09:11:21;;;;;;;69.28;44.38;;;;;;;;;;5012647;28;20034;-48
2024/01/24 09:13:48;;;;;;;63.72;42.08;;;;;;;;;;5012414;28;20041;-50
2024/01/24 09:16:15;;;;;;;65.40;42.92;;;;;;;;;;5012737;28;20385;-47
2024/01/24 09:18:42;;;;;;;68.22;43.90;;;;;;;;;;5012543;28;20042;-49
2024/01/24 09:21:09;;;;;;;67.20;41.63;;;;;;;;;;5013770;28;20033;-45
2024/01/24 09:23:35;;;;;;;64.05;40.42;;;;;;;;;;5012403;28;20503;-47
2024/01/24 09:26:04;;;;;;;62.90;40.47;;;;;;;;;;5013670;28;20030;-49
2024/01/24 09:28:31;;;;;;;62.65;41.83;;;;;;;;;;5012406;28;20068;-48
2024/01/24 09:30:57;;;;;;;49.70;30.33;;;;;;;;;;5012502;28;20038;-49
2024/01/24 09:33:23;;;;;;;62.22;41.38;;;;;;;;;;5013799;28;20030;-47
2024/01/24 09:35:49;;;;;;;68.23;38.10;;;;;;;;;;5013506;28;20049;-50
2024/01/24 09:38:16;;;;;;;65.20;40.23;;;;;;;;;;4995938;28;20044;-50
2024/01/24 09:40:43;;;;;;;64.37;40.57;;;;;;;;;;5012778;28;20783;-47
2024/01/24 09:43:10;;;;;;;60.47;39.60;;;;;;;;;;5013392;28;20743;-48
2024/01/24 09:45:37;;;;;;;;;;;;;;;;;;5013655;28;20033;-45
2024/01/24 09:48:03;;;;;;;58.35;37.55;;;;;;;;;;4995397;28;19948;-49
2024/01/24 09:50:29;;;;;;;60.42;41.88;;;;;;;;;;5013233;28;20378;-52
2024/01/24 09:52:56;;;;;;;61.58;37.58;;;;;;;;;;5013038;28;20040;-46
2024/01/24 09:55:23;;;;;;;62.08;39.35;;;;;;;;;;5012858;28;20029;-47
2024/01/24 09:57:49;;;;;;;63.15;41.17;;;;;;;;;;5012978;28;20052;-47
2024/01/24 10:00:16;;;;;;;58.03;38.45;;;;;;;;;;5011907;28;20032;-49
2024/01/24 10:02:46;;;;;;;57.20;39.72;;;;;;;;;;5012947;28;20018;-47
2024/01/24 10:05:14;;;;;;;63.63;38.88;;;;;;;;;;5012754;28;20030;-47
2024/01/24 10:07:41;;;;;;;60.65;41.03;;;;;;;;;;5011498;28;20030;-46
2024/01/24 10:10:15;;;;;;;58.58;40.10;;;;;;;;;;5012661;28;20037;-47
2024/01/24 10:12:42;;;;;;;59.80;41.22;;;;;;;;;;5012751;28;20038;-47
2024/01/24 10:15:08;;;;;;;61.88;40.58;;;;;;;;;;5011269;28;20057;-49
2024/01/24 10:17:34;;;;;;;57.95;38.45;;;;;;;;;;5011585;28;20474;-46
2024/01/24 10:20:01;;;;;;;61.25;40.92;;;;;;;;;;5012575;28;20300;-49
2024/01/24 10:22:27;;;;;;;58.70;40.22;;;;;;;;;;5012468;28;20424;-47
2024/01/24 10:24:57;;;;;;;68.28;41.33;;;;;;;;;;5011197;28;20088;-49
2024/01/24 10:27:23;;;;;;;61.47;41.38;;;;;;;;;;5012573;28;20053;-47
2024/01/24 10:29:49;;;;;;;61.63;43.47;;;;;;;;;;5012426;28;20018;-52
2024/01/24 10:32:16;;;;;;;58.73;40.47;;;;;;;;;;5012642;28;20026;-47
2024/01/24 10:34:42;;;;;;;63.35;42.78;;;;;;;;;;5012269;28;20040;-47
2024/01/24 10:37:08;;;;;;;59.20;40.58;;;;;;;;;;5012251;28;20116;-49
2024/01/24 10:39:36;;;;;;;59.35;40.65;;;;;;;;;;5012269;28;20114;-47
2024/01/24 10:42:04;;;;;;;61.05;41.55;;;;;;;;;;5010866;28;20064;-51
2024/01/24 10:44:35;;;;;;;56.92;41.28;;;;;;;;;;4994571;28;20457;-49
2024/01/24 10:47:04;;;;;;;54.78;38.90;;;;;;;;;;5012340;28;20431;-50
2024/01/24 10:49:32;;;;;;;57.50;41.97;;;;;;;;;;5012431;28;20088;-48
2024/01/24 10:52:00;;;;;;;56.28;42.60;;;;;;;;;;5011072;28;20049;-46
2024/01/24 10:54:27;;;;;;;52.20;38.05;;;;;;;;;;5010757;28;20065;-47
2024/01/24 10:56:54;;;;;;;61.92;43.35;;;;;;;;;;5011000;28;20133;-47
2024/01/24 10:59:20;;;;;;;61.33;42.47;;;;;;;;;;5010751;28;20113;-49
2024/01/24 11:01:49;;;;;;;56.33;40.25;;;;;;;;;;5011908;28;20026;-48
2024/01/24 11:04:21;;;;;;;58.20;43.05;;;;;;;;;;5010518;28;20555;-47
2024/01/24 11:06:53;;;;;;;55.47;41.67;;;;;;;;;;5011979;28;20053;-50
2024/01/24 11:09:52;;;;;;;63.50;43.08;;;;;;;;;;5010725;28;20080;-50
2024/01/24 11:12:19;;;;;;;62.95;41.13;;;;;;;;;;5011803;28;20112;-49
2024/01/24 11:14:47;;;;;;;58.93;41.47;;;;;;;;;;5010655;28;20108;-47
2024/01/24 11:17:13;;;;;;;57.03;42.00;;;;;;;;;;5009906;28;20265;-47
2024/01/24 11:19:39;;;;;;;59.85;41.63;;;;;;;;;;5010021;28;20492;-47
2024/01/24 11:22:09;;;;;;;54.60;42.07;;;;;;;;;;5010651;28;20037;-47
2024/01/24 11:24:41;;;;;;;54.42;42.92;;;;;;;;;;5010741;28;20051;-48
2024/01/24 11:27:27;;;;;;;56.08;42.08;;;;;;;;;;5009051;28;20025;-52
2024/01/24 11:29:55;;;;;;;58.15;41.70;;;;;;;;;;5009708;28;20076;-48
2024/01/24 11:32:45;;;;;;;56.95;44.08;;;;;;;;;;5011168;28;20141;-47
2024/01/24 11:35:26;;;;;;;65.40;42.95;;;;;;;;;;4999020;28;20112;-47
2024/01/24 11:37:56;;;;;;;58.42;43.58;;;;;;;;;;5008386;28;20037;-47
2024/01/24 11:40:23;;;;;;;54.70;41.13;;;;;;;;;;5009807;28;20042;-47
2024/01/24 11:42:56;;;;;;;64.47;42.67;;;;;;;;;;4993181;28;20034;-51
2024/01/24 11:45:24;;;;;;;57.30;42.92;;;;;;;;;;5009272;28;20100;-47
2024/01/24 11:47:52;;;;;;;59.88;42.22;;;;;;;;;;5009625;28;20109;-49
2024/01/24 11:50:19;;;;;;;61.42;44.63;;;;;;;;;;5013543;28;20530;-46
2024/01/24 11:52:46;;;;;;;62.50;45.28;;;;;;;;;;4992197;28;20030;-50
2024/01/24 11:55:12;;;;;;;55.67;43.15;;;;;;;;;;5015843;28;20426;-48
2024/01/24 11:57:39;;;;;;;60.10;42.55;;;;;;;;;;5013232;28;20034;-46
2024/01/24 12:00:06;;;;;;;58.85;45.17;;;;;;;;;;5018971;28;20052;-47
2024/01/24 12:02:33;;;;;;;56.67;43.47;;;;;;;;;;4977135;28;20030;-48
2024/01/24 12:04:59;;;;;;;61.20;42.00;;;;;;;;;;5009360;28;20030;-48
2024/01/24 12:07:26;;;;;;;60.00;42.80;;;;;;;;;;5009331;28;20026;-47
2024/01/24 12:09:53;;;;;;;63.50;44.53;;;;;;;;;;5009469;28;20068;-51
2024/01/24 12:12:20;;;;;;;56.97;42.22;;;;;;;;;;5009396;28;20037;-47
2024/01/24 12:14:46;;;;;;;62.78;44.58;;;;;;;;;;5008857;28;20112;-46
2024/01/24 12:17:12;;;;;;;66.68;47.10;;;;;;;;;;5009755;28;20030;-47
2024/01/24 12:19:43;;;;;;;60.58;44.70;;;;;;;;;;5008020;28;20093;-49
2024/01/24 12:22:10;;;;;;;59.35;41.60;;;;;;;;;;5007635;28;20339;-47
2024/01/24 12:24:40;;;;;;;60.28;40.63;;;;;;;;;;5011066;28;20105;-49
2024/01/24 12:27:07;;;;;;;58.30;41.45;;;;;;;;;;5012978;28;20543;-47
2024/01/24 12:29:33;;;;;;;;;;;;;;;;;;5013318;28;20022;-49
2024/01/24 12:32:05;;;;;;;59.35;41.35;;;;;;;;;;5012970;28;19988;-52
2024/01/24 12:34:31;;;;;;;53.38;41.25;;;;;;;;;;5012795;28;20033;-53
2024/01/24 12:37:00;;;;;;;57.67;41.22;;;;;;;;;;5011488;28;20053;-49
2024/01/24 12:39:32;;;;;;;53.17;39.63;;;;;;;;;;5011491;28;20471;-50
2024/01/24 12:42:00;;;;;;;51.67;38.42;;;;;;;;;;5011460;28;20126;-46
2024/01/24 12:44:26;;;;;;;;;;;;;;;;;;5013210;28;20038;-47
2024/01/24 12:46:56;;;;;;;51.45;41.08;;;;;;;;;;5011258;28;20402;-49
2024/01/24 12:49:23;;;;;;;55.40;42.40;;;;;;;;;;5009367;28;20033;-48
2024/01/24 12:51:50;;;;;;;56.45;40.90;;;;;;;;;;5011391;28;20416;-50
2024/01/24 12:54:17;;;;;;;58.25;42.47;;;;;;;;;;4994754;28;20592;-47
2024/01/24 12:56:45;;;;;;;55.75;42.03;;;;;;;;;;4995182;28;20026;-49
2024/01/24 12:59:11;;;;;;;68.38;42.88;;;;;;;;;;5011196;28;20060;-48
2024/01/24 13:01:37;;;;;;;54.95;41.63;;;;;;;;;;5011322;28;20061;-48
2024/01/24 13:04:03;;;;;;;52.17;41.40;;;;;;;;;;5012194;28;20033;-48
2024/01/24 13:06:29;;;;;;;51.70;39.88;;;;;;;;;;5012534;28;20129;-48
2024/01/24 13:08:56;;;;;;;56.40;42.00;;;;;;;;;;5012522;28;20741;-48
2024/01/24 13:11:22;;;;;;;52.77;40.23;;;;;;;;;;5012279;28;20033;-47
2024/01/24 13:13:49;;;;;;;50.75;41.47;;;;;;;;;;5012275;28;20042;-51
2024/01/24 13:16:15;;;;;;;;;;;;;;;;;;4995054;28;20040;-50
2024/01/24 13:18:41;;;;;;;51.05;40.88;;;;;;;;;;5011941;28;19921;-50
2024/01/24 13:21:07;;;;;;;54.22;40.55;;;;;;;;;;5010991;28;20543;-52
2024/01/24 13:23:34;;;;;;;50.58;41.13;;;;;;;;;;5011656;28;20104;-47
2024/01/24 13:26:00;;;;;;;48.03;38.78;;;;;;;;;;5011649;28;20030;-48
2024/01/24 13:28:26;;;;;;;54.38;39.75;;;;;;;;;;5011565;28;20026;-51
2024/01/24 13:30:53;;;;;;;55.77;41.87;;;;;;;;;;4999092;28;20500;-48
2024/01/24 13:33:20;;;;;;;49.78;40.00;;;;;;;;;;5011423;28;20034;-48
2024/01/24 13:35:46;;;;;;;51.77;40.93;;;;;;;;;;5010625;28;20389;-51
2024/01/24 13:38:13;;;;;;;54.03;41.17;;;;;;;;;;5010187;28;20639;-52
2024/01/24 13:40:39;;;;;;;59.22;41.17;;;;;;;;;;5009901;28;20401;-54
2024/01/24 13:43:05;;;;;;;52.97;39.97;;;;;;;;;;5010530;28;20109;-48
2024/01/24 13:45:31;;;;;;;48.67;39.63;;;;;;;;;;5010208;28;20347;-49
2024/01/24 13:47:58;;;;;;;54.10;40.00;;;;;;;;;;5011190;28;20037;-49
2024/01/24 13:50:24;;;;;;;52.00;39.20;;;;;;;;;;5009515;28;20037;-50
2024/01/24 13:52:50;;;;;;;49.30;39.72;;;;;;;;;;5011579;28;20444;-50
2024/01/24 13:55:17;;;;;;;53.30;40.67;;;;;;;;;;5011158;28;20031;-49
2024/01/24 13:57:44;;;;;;;55.15;40.05;;;;;;;;;;5011534;28;20484;-48
2024/01/24 14:00:13;;;;;;;49.78;40.90;;;;;;;;;;5011071;28;20026;-53
2024/01/24 14:02:40;;;;;;;51.20;38.00;;;;;;;;;;5011446;28;20018;-51
2024/01/24 14:05:06;;;;;;;52.58;38.20;;;;;;;;;;5011078;28;20026;-47
2024/01/24 14:07:33;;;;;;;56.27;40.87;;;;;;;;;;4993788;28;20033;-51
2024/01/24 14:09:59;;;;;;;;;;;;;;;;;;5010469;28;20268;-50
2024/01/24 14:12:25;;;;;;;57.58;42.65;;;;;;;;;;5011386;28;19913;-50
2024/01/24 14:14:51;;;;;;;51.97;40.63;;;;;;;;;;5011299;28;20132;-48
2024/01/24 14:17:18;;;;;;;53.13;39.50;;;;;;;;;;5009884;28;20562;-48
2024/01/24 14:19:44;;;;;;;64.17;43.00;;;;;;;;;;5013164;28;20030;-48